sensor_id;sensor_type;location;lat;lon;timestamp;P1;durP1;ratioP1;P2;durP2;ratioP2
64907;SDS011;69061;52.236;5.188;2023-12-04T00:01:55;45.28;;;20.00;;
64907;SDS011;69061;52.236;5.188;2023-12-04T00:04:22;48.03;;;21.45;;
64907;SDS011;69061;52.236;5.188;2023-12-04T00:06:48;42.15;;;19.20;;
64907;SDS011;69061;52.236;5.188;2023-12-04T00:09:15;42.17;;;18.33;;
64907;SDS011;69061;52.236;5.188;2023-12-04T00:11:43;47.60;;;18.02;;
64907;SDS011;69061;52.236;5.188;2023-12-04T00:14:10;49.22;;;20.02;;
64907;SDS011;69061;52.236;5.188;2023-12-04T00:16:36;41.83;;;18.83;;
64907;SDS011;69061;52.236;5.188;2023-12-04T00:19:03;44.90;;;19.45;;
64907;SDS011;69061;52.236;5.188;2023-12-04T00:21:30;40.55;;;19.27;;
64907;SDS011;69061;52.236;5.188;2023-12-04T00:23:57;43.08;;;18.02;;
64907;SDS011;69061;52.236;5.188;2023-12-04T00:26:23;50.80;;;19.67;;
64907;SDS011;69061;52.236;5.188;2023-12-04T00:28:51;54.20;;;20.50;;
64907;SDS011;69061;52.236;5.188;2023-12-04T00:31:18;41.38;;;17.17;;
64907;SDS011;69061;52.236;5.188;2023-12-04T00:33:44;45.83;;;19.02;;
64907;SDS011;69061;52.236;5.188;2023-12-04T00:36:13;42.03;;;19.08;;
64907;SDS011;69061;52.236;5.188;2023-12-04T00:38:39;42.97;;;18.15;;
64907;SDS011;69061;52.236;5.188;2023-12-04T00:41:06;44.10;;;19.92;;
64907;SDS011;69061;52.236;5.188;2023-12-04T00:43:33;52.05;;;22.35;;
64907;SDS011;69061;52.236;5.188;2023-12-04T00:46:01;45.97;;;19.98;;
64907;SDS011;69061;52.236;5.188;2023-12-04T00:48:28;41.67;;;18.50;;
64907;SDS011;69061;52.236;5.188;2023-12-04T00:50:54;46.80;;;19.20;;
64907;SDS011;69061;52.236;5.188;2023-12-04T00:53:21;39.92;;;17.48;;
64907;SDS011;69061;52.236;5.188;2023-12-04T00:55:49;43.05;;;19.67;;
64907;SDS011;69061;52.236;5.188;2023-12-04T00:58:17;46.90;;;20.35;;
64907;SDS011;69061;52.236;5.188;2023-12-04T01:00:44;41.03;;;18.73;;
64907;SDS011;69061;52.236;5.188;2023-12-04T01:03:15;43.08;;;19.70;;
64907;SDS011;69061;52.236;5.188;2023-12-04T01:05:41;44.15;;;19.63;;
64907;SDS011;69061;52.236;5.188;2023-12-04T01:08:08;44.13;;;19.38;;
64907;SDS011;69061;52.236;5.188;2023-12-04T01:10:35;47.70;;;20.55;;
64907;SDS011;69061;52.236;5.188;2023-12-04T01:13:01;42.03;;;20.17;;
64907;SDS011;69061;52.236;5.188;2023-12-04T01:15:28;45.58;;;21.48;;
64907;SDS011;69061;52.236;5.188;2023-12-04T01:17:55;47.35;;;18.33;;
64907;SDS011;69061;52.236;5.188;2023-12-04T01:20:26;44.92;;;18.08;;
64907;SDS011;69061;52.236;5.188;2023-12-04T01:22:53;43.80;;;19.90;;
64907;SDS011;69061;52.236;5.188;2023-12-04T01:25:21;51.60;;;20.38;;
64907;SDS011;69061;52.236;5.188;2023-12-04T01:27:48;51.88;;;21.50;;
64907;SDS011;69061;52.236;5.188;2023-12-04T01:30:16;45.75;;;20.45;;
64907;SDS011;69061;52.236;5.188;2023-12-04T01:32:42;43.42;;;19.60;;
64907;SDS011;69061;52.236;5.188;2023-12-04T01:35:09;45.42;;;20.27;;
64907;SDS011;69061;52.236;5.188;2023-12-04T01:37:38;49.83;;;22.50;;
64907;SDS011;69061;52.236;5.188;2023-12-04T01:40:05;38.15;;;19.33;;
64907;SDS011;69061;52.236;5.188;2023-12-04T01:42:32;40.63;;;18.38;;
64907;SDS011;69061;52.236;5.188;2023-12-04T01:44:59;58.38;;;23.00;;
64907;SDS011;69061;52.236;5.188;2023-12-04T01:47:25;47.78;;;20.52;;
64907;SDS011;69061;52.236;5.188;2023-12-04T01:49:52;45.58;;;19.27;;
64907;SDS011;69061;52.236;5.188;2023-12-04T01:52:19;38.05;;;17.33;;
64907;SDS011;69061;52.236;5.188;2023-12-04T01:54:47;50.53;;;21.42;;
64907;SDS011;69061;52.236;5.188;2023-12-04T01:57:13;46.33;;;21.25;;
64907;SDS011;69061;52.236;5.188;2023-12-04T01:59:40;48.35;;;21.33;;
64907;SDS011;69061;52.236;5.188;2023-12-04T02:02:06;50.40;;;22.10;;
64907;SDS011;69061;52.236;5.188;2023-12-04T02:04:33;46.80;;;20.67;;
64907;SDS011;69061;52.236;5.188;2023-12-04T02:07:00;48.25;;;21.65;;
64907;SDS011;69061;52.236;5.188;2023-12-04T02:09:26;47.03;;;20.20;;
64907;SDS011;69061;52.236;5.188;2023-12-04T02:11:55;58.55;;;21.90;;
64907;SDS011;69061;52.236;5.188;2023-12-04T02:14:23;50.78;;;20.45;;
64907;SDS011;69061;52.236;5.188;2023-12-04T02:16:51;42.78;;;19.25;;
64907;SDS011;69061;52.236;5.188;2023-12-04T02:19:20;45.65;;;18.63;;
64907;SDS011;69061;52.236;5.188;2023-12-04T02:21:49;51.20;;;21.00;;
64907;SDS011;69061;52.236;5.188;2023-12-04T02:24:18;47.65;;;21.30;;
64907;SDS011;69061;52.236;5.188;2023-12-04T02:26:47;47.85;;;19.45;;
64907;SDS011;69061;52.236;5.188;2023-12-04T02:29:19;46.60;;;20.92;;
64907;SDS011;69061;52.236;5.188;2023-12-04T02:31:50;47.87;;;20.53;;
64907;SDS011;69061;52.236;5.188;2023-12-04T02:34:18;43.33;;;19.23;;
64907;SDS011;69061;52.236;5.188;2023-12-04T02:36:46;52.08;;;22.90;;
64907;SDS011;69061;52.236;5.188;2023-12-04T02:39:15;50.22;;;20.30;;
64907;SDS011;69061;52.236;5.188;2023-12-04T02:41:43;50.85;;;21.05;;
64907;SDS011;69061;52.236;5.188;2023-12-04T02:44:09;47.85;;;22.42;;
64907;SDS011;69061;52.236;5.188;2023-12-04T02:46:36;56.45;;;23.00;;
64907;SDS011;69061;52.236;5.188;2023-12-04T02:49:04;48.55;;;22.65;;
64907;SDS011;69061;52.236;5.188;2023-12-04T02:51:31;44.22;;;18.67;;
64907;SDS011;69061;52.236;5.188;2023-12-04T02:53:57;52.28;;;20.92;;
64907;SDS011;69061;52.236;5.188;2023-12-04T02:56:24;42.40;;;17.40;;
64907;SDS011;69061;52.236;5.188;2023-12-04T02:58:52;46.53;;;20.38;;
64907;SDS011;69061;52.236;5.188;2023-12-04T03:01:19;46.88;;;21.60;;
64907;SDS011;69061;52.236;5.188;2023-12-04T03:03:45;56.40;;;23.00;;
64907;SDS011;69061;52.236;5.188;2023-12-04T03:06:12;44.15;;;18.00;;
64907;SDS011;69061;52.236;5.188;2023-12-04T03:08:41;49.47;;;20.17;;
64907;SDS011;69061;52.236;5.188;2023-12-04T03:11:08;54.05;;;20.98;;
64907;SDS011;69061;52.236;5.188;2023-12-04T03:13:34;45.03;;;19.30;;
64907;SDS011;69061;52.236;5.188;2023-12-04T03:16:02;47.20;;;21.15;;
64907;SDS011;69061;52.236;5.188;2023-12-04T03:18:29;45.97;;;20.85;;
64907;SDS011;69061;52.236;5.188;2023-12-04T03:20:56;44.30;;;20.38;;
64907;SDS011;69061;52.236;5.188;2023-12-04T03:23:23;43.63;;;19.35;;
64907;SDS011;69061;52.236;5.188;2023-12-04T03:25:49;50.20;;;21.67;;
64907;SDS011;69061;52.236;5.188;2023-12-04T03:28:16;46.55;;;20.30;;
64907;SDS011;69061;52.236;5.188;2023-12-04T03:30:42;48.65;;;21.83;;
64907;SDS011;69061;52.236;5.188;2023-12-04T03:33:11;51.13;;;19.77;;
64907;SDS011;69061;52.236;5.188;2023-12-04T03:35:38;51.25;;;21.52;;
64907;SDS011;69061;52.236;5.188;2023-12-04T03:38:04;40.85;;;18.38;;
64907;SDS011;69061;52.236;5.188;2023-12-04T03:40:32;51.28;;;20.73;;
64907;SDS011;69061;52.236;5.188;2023-12-04T03:42:59;46.22;;;19.98;;
64907;SDS011;69061;52.236;5.188;2023-12-04T03:45:25;43.38;;;19.40;;
64907;SDS011;69061;52.236;5.188;2023-12-04T03:47:52;47.63;;;22.50;;
64907;SDS011;69061;52.236;5.188;2023-12-04T03:50:20;50.92;;;21.77;;
64907;SDS011;69061;52.236;5.188;2023-12-04T03:52:48;50.13;;;21.88;;
64907;SDS011;69061;52.236;5.188;2023-12-04T03:55:15;48.63;;;21.63;;
64907;SDS011;69061;52.236;5.188;2023-12-04T03:57:44;48.10;;;19.92;;
64907;SDS011;69061;52.236;5.188;2023-12-04T04:00:11;46.90;;;20.13;;
64907;SDS011;69061;52.236;5.188;2023-12-04T04:02:39;48.75;;;20.52;;
64907;SDS011;69061;52.236;5.188;2023-12-04T04:05:06;47.83;;;19.88;;
64907;SDS011;69061;52.236;5.188;2023-12-04T04:07:34;41.50;;;19.50;;
64907;SDS011;69061;52.236;5.188;2023-12-04T04:10:01;42.17;;;18.70;;
64907;SDS011;69061;52.236;5.188;2023-12-04T04:12:29;47.53;;;21.40;;
64907;SDS011;69061;52.236;5.188;2023-12-04T04:14:56;52.20;;;21.40;;
64907;SDS011;69061;52.236;5.188;2023-12-04T04:17:22;45.88;;;19.92;;
64907;SDS011;69061;52.236;5.188;2023-12-04T04:19:51;40.72;;;18.50;;
64907;SDS011;69061;52.236;5.188;2023-12-04T04:22:17;44.15;;;18.38;;
64907;SDS011;69061;52.236;5.188;2023-12-04T04:24:45;41.38;;;20.02;;
64907;SDS011;69061;52.236;5.188;2023-12-04T04:27:12;40.65;;;17.40;;
64907;SDS011;69061;52.236;5.188;2023-12-04T04:29:41;48.00;;;23.05;;
64907;SDS011;69061;52.236;5.188;2023-12-04T04:32:08;49.83;;;20.90;;
64907;SDS011;69061;52.236;5.188;2023-12-04T04:34:34;44.58;;;19.27;;
64907;SDS011;69061;52.236;5.188;2023-12-04T04:37:01;46.30;;;20.05;;
64907;SDS011;69061;52.236;5.188;2023-12-04T04:39:28;42.53;;;19.08;;
64907;SDS011;69061;52.236;5.188;2023-12-04T04:41:56;40.47;;;17.48;;
64907;SDS011;69061;52.236;5.188;2023-12-04T04:44:22;43.92;;;18.50;;
64907;SDS011;69061;52.236;5.188;2023-12-04T04:46:50;45.03;;;21.38;;
64907;SDS011;69061;52.236;5.188;2023-12-04T04:49:17;43.90;;;19.88;;
64907;SDS011;69061;52.236;5.188;2023-12-04T04:51:44;47.60;;;19.30;;
64907;SDS011;69061;52.236;5.188;2023-12-04T04:54:10;41.90;;;19.30;;
64907;SDS011;69061;52.236;5.188;2023-12-04T04:56:37;36.97;;;17.52;;
64907;SDS011;69061;52.236;5.188;2023-12-04T04:59:05;44.47;;;19.55;;
64907;SDS011;69061;52.236;5.188;2023-12-04T05:01:32;39.08;;;18.45;;
64907;SDS011;69061;52.236;5.188;2023-12-04T05:03:59;37.33;;;16.42;;
64907;SDS011;69061;52.236;5.188;2023-12-04T05:06:25;44.60;;;19.52;;
64907;SDS011;69061;52.236;5.188;2023-12-04T05:08:52;37.55;;;17.58;;
64907;SDS011;69061;52.236;5.188;2023-12-04T05:11:19;40.22;;;19.45;;
64907;SDS011;69061;52.236;5.188;2023-12-04T05:13:45;40.63;;;17.33;;
64907;SDS011;69061;52.236;5.188;2023-12-04T05:16:14;41.28;;;17.95;;
64907;SDS011;69061;52.236;5.188;2023-12-04T05:18:40;43.38;;;18.65;;
64907;SDS011;69061;52.236;5.188;2023-12-04T05:21:08;43.13;;;17.60;;
64907;SDS011;69061;52.236;5.188;2023-12-04T05:23:34;40.92;;;17.70;;
64907;SDS011;69061;52.236;5.188;2023-12-04T05:26:01;37.42;;;18.45;;
64907;SDS011;69061;52.236;5.188;2023-12-04T05:28:28;34.08;;;16.70;;
64907;SDS011;69061;52.236;5.188;2023-12-04T05:30:55;34.90;;;16.10;;
64907;SDS011;69061;52.236;5.188;2023-12-04T05:33:24;38.45;;;15.90;;
64907;SDS011;69061;52.236;5.188;2023-12-04T05:35:51;35.60;;;16.13;;
64907;SDS011;69061;52.236;5.188;2023-12-04T05:38:19;35.10;;;14.70;;
64907;SDS011;69061;52.236;5.188;2023-12-04T05:40:45;38.50;;;16.67;;
64907;SDS011;69061;52.236;5.188;2023-12-04T05:43:12;36.17;;;17.60;;
64907;SDS011;69061;52.236;5.188;2023-12-04T05:45:38;34.90;;;15.00;;
64907;SDS011;69061;52.236;5.188;2023-12-04T05:48:05;37.33;;;17.90;;
64907;SDS011;69061;52.236;5.188;2023-12-04T05:50:33;33.15;;;16.38;;
64907;SDS011;69061;52.236;5.188;2023-12-04T05:53:00;37.42;;;16.58;;
64907;SDS011;69061;52.236;5.188;2023-12-04T05:55:26;33.85;;;18.00;;
64907;SDS011;69061;52.236;5.188;2023-12-04T05:57:53;31.33;;;15.82;;
64907;SDS011;69061;52.236;5.188;2023-12-04T06:00:19;41.42;;;16.08;;
64907;SDS011;69061;52.236;5.188;2023-12-04T06:02:47;35.28;;;18.95;;
64907;SDS011;69061;52.236;5.188;2023-12-04T06:05:15;40.42;;;16.38;;
64907;SDS011;69061;52.236;5.188;2023-12-04T06:07:43;35.58;;;18.17;;
64907;SDS011;69061;52.236;5.188;2023-12-04T06:10:10;39.78;;;17.42;;
64907;SDS011;69061;52.236;5.188;2023-12-04T06:12:36;34.42;;;18.13;;
64907;SDS011;69061;52.236;5.188;2023-12-04T06:15:03;38.38;;;18.15;;
64907;SDS011;69061;52.236;5.188;2023-12-04T06:17:30;32.90;;;17.00;;
64907;SDS011;69061;52.236;5.188;2023-12-04T06:19:57;36.60;;;18.60;;
64907;SDS011;69061;52.236;5.188;2023-12-04T06:22:24;31.98;;;15.50;;
64907;SDS011;69061;52.236;5.188;2023-12-04T06:24:53;32.13;;;16.55;;
64907;SDS011;69061;52.236;5.188;2023-12-04T06:27:20;42.17;;;17.25;;
64907;SDS011;69061;52.236;5.188;2023-12-04T06:29:47;35.50;;;18.40;;
64907;SDS011;69061;52.236;5.188;2023-12-04T06:32:16;32.72;;;18.17;;
64907;SDS011;69061;52.236;5.188;2023-12-04T06:34:43;32.08;;;16.73;;
64907;SDS011;69061;52.236;5.188;2023-12-04T06:37:10;39.65;;;17.27;;
64907;SDS011;69061;52.236;5.188;2023-12-04T06:39:38;31.98;;;15.60;;
64907;SDS011;69061;52.236;5.188;2023-12-04T06:42:07;34.38;;;14.50;;
64907;SDS011;69061;52.236;5.188;2023-12-04T06:44:35;34.58;;;16.40;;
64907;SDS011;69061;52.236;5.188;2023-12-04T06:47:03;33.08;;;15.35;;
64907;SDS011;69061;52.236;5.188;2023-12-04T06:49:33;33.70;;;16.65;;
64907;SDS011;69061;52.236;5.188;2023-12-04T06:52:01;32.95;;;16.15;;
64907;SDS011;69061;52.236;5.188;2023-12-04T06:54:28;30.90;;;14.45;;
64907;SDS011;69061;52.236;5.188;2023-12-04T06:56:56;32.10;;;14.00;;
64907;SDS011;69061;52.236;5.188;2023-12-04T06:59:24;31.73;;;15.32;;
64907;SDS011;69061;52.236;5.188;2023-12-04T07:01:51;33.90;;;15.57;;
64907;SDS011;69061;52.236;5.188;2023-12-04T07:04:17;29.42;;;14.48;;
64907;SDS011;69061;52.236;5.188;2023-12-04T07:06:46;28.73;;;15.52;;
64907;SDS011;69061;52.236;5.188;2023-12-04T07:09:13;29.60;;;15.52;;
64907;SDS011;69061;52.236;5.188;2023-12-04T07:11:39;27.55;;;14.63;;
64907;SDS011;69061;52.236;5.188;2023-12-04T07:14:06;29.77;;;15.10;;
64907;SDS011;69061;52.236;5.188;2023-12-04T07:16:39;29.30;;;15.18;;
64907;SDS011;69061;52.236;5.188;2023-12-04T07:19:07;28.30;;;13.95;;
64907;SDS011;69061;52.236;5.188;2023-12-04T07:21:34;31.38;;;14.93;;
64907;SDS011;69061;52.236;5.188;2023-12-04T07:24:01;27.50;;;13.65;;
64907;SDS011;69061;52.236;5.188;2023-12-04T07:26:28;30.98;;;15.48;;
64907;SDS011;69061;52.236;5.188;2023-12-04T07:28:54;28.52;;;14.07;;
64907;SDS011;69061;52.236;5.188;2023-12-04T07:31:21;33.67;;;14.93;;
64907;SDS011;69061;52.236;5.188;2023-12-04T07:33:49;28.27;;;14.95;;
64907;SDS011;69061;52.236;5.188;2023-12-04T07:36:16;25.67;;;12.73;;
64907;SDS011;69061;52.236;5.188;2023-12-04T07:38:43;29.33;;;13.93;;
64907;SDS011;69061;52.236;5.188;2023-12-04T07:41:10;26.75;;;12.50;;
64907;SDS011;69061;52.236;5.188;2023-12-04T07:43:36;29.63;;;14.63;;
64907;SDS011;69061;52.236;5.188;2023-12-04T07:46:03;28.23;;;14.32;;
64907;SDS011;69061;52.236;5.188;2023-12-04T07:48:30;26.48;;;13.77;;
64907;SDS011;69061;52.236;5.188;2023-12-04T07:50:58;31.77;;;15.43;;
64907;SDS011;69061;52.236;5.188;2023-12-04T07:53:24;26.33;;;14.18;;
64907;SDS011;69061;52.236;5.188;2023-12-04T07:55:51;24.67;;;13.15;;
64907;SDS011;69061;52.236;5.188;2023-12-04T07:58:18;29.88;;;14.88;;
64907;SDS011;69061;52.236;5.188;2023-12-04T08:00:45;31.77;;;16.20;;
64907;SDS011;69061;52.236;5.188;2023-12-04T08:03:11;25.08;;;13.68;;
64907;SDS011;69061;52.236;5.188;2023-12-04T08:05:38;23.20;;;13.40;;
64907;SDS011;69061;52.236;5.188;2023-12-04T08:08:06;24.20;;;12.43;;
64907;SDS011;69061;52.236;5.188;2023-12-04T08:10:32;31.15;;;14.93;;
64907;SDS011;69061;52.236;5.188;2023-12-04T08:12:59;29.10;;;13.70;;
64907;SDS011;69061;52.236;5.188;2023-12-04T08:15:26;26.80;;;13.32;;
64907;SDS011;69061;52.236;5.188;2023-12-04T08:17:52;29.88;;;13.85;;
64907;SDS011;69061;52.236;5.188;2023-12-04T08:20:20;32.55;;;14.75;;
64907;SDS011;69061;52.236;5.188;2023-12-04T08:22:48;24.95;;;13.57;;
64907;SDS011;69061;52.236;5.188;2023-12-04T08:25:16;39.38;;;15.20;;
64907;SDS011;69061;52.236;5.188;2023-12-04T08:27:43;24.75;;;13.98;;
64907;SDS011;69061;52.236;5.188;2023-12-04T08:30:09;26.45;;;13.38;;
64907;SDS011;69061;52.236;5.188;2023-12-04T08:32:36;28.85;;;13.48;;
64907;SDS011;69061;52.236;5.188;2023-12-04T08:35:04;31.70;;;14.43;;
64907;SDS011;69061;52.236;5.188;2023-12-04T08:37:31;23.00;;;12.38;;
64907;SDS011;69061;52.236;5.188;2023-12-04T08:39:58;32.67;;;16.80;;
64907;SDS011;69061;52.236;5.188;2023-12-04T08:42:26;24.23;;;12.02;;
64907;SDS011;69061;52.236;5.188;2023-12-04T08:44:52;31.00;;;14.10;;
64907;SDS011;69061;52.236;5.188;2023-12-04T08:47:19;26.25;;;13.07;;
64907;SDS011;69061;52.236;5.188;2023-12-04T08:49:45;27.65;;;13.80;;
64907;SDS011;69061;52.236;5.188;2023-12-04T08:52:12;21.08;;;10.77;;
64907;SDS011;69061;52.236;5.188;2023-12-04T08:54:38;26.25;;;12.73;;
64907;SDS011;69061;52.236;5.188;2023-12-04T08:57:06;24.15;;;12.68;;
64907;SDS011;69061;52.236;5.188;2023-12-04T08:59:35;25.38;;;11.45;;
64907;SDS011;69061;52.236;5.188;2023-12-04T09:02:02;26.58;;;13.15;;
64907;SDS011;69061;52.236;5.188;2023-12-04T09:04:29;22.50;;;12.63;;
64907;SDS011;69061;52.236;5.188;2023-12-04T09:06:56;22.15;;;11.68;;
64907;SDS011;69061;52.236;5.188;2023-12-04T09:09:23;24.58;;;12.63;;
64907;SDS011;69061;52.236;5.188;2023-12-04T09:11:50;23.50;;;12.00;;
64907;SDS011;69061;52.236;5.188;2023-12-04T09:14:17;19.08;;;11.05;;
64907;SDS011;69061;52.236;5.188;2023-12-04T09:16:45;25.85;;;13.63;;
64907;SDS011;69061;52.236;5.188;2023-12-04T09:19:12;30.90;;;11.45;;
64907;SDS011;69061;52.236;5.188;2023-12-04T09:21:38;29.60;;;12.45;;
64907;SDS011;69061;52.236;5.188;2023-12-04T09:24:05;24.17;;;12.73;;
64907;SDS011;69061;52.236;5.188;2023-12-04T09:26:32;20.52;;;10.20;;
64907;SDS011;69061;52.236;5.188;2023-12-04T09:28:59;22.15;;;11.23;;
64907;SDS011;69061;52.236;5.188;2023-12-04T09:31:26;18.90;;;10.02;;
64907;SDS011;69061;52.236;5.188;2023-12-04T09:33:55;23.95;;;12.30;;
64907;SDS011;69061;52.236;5.188;2023-12-04T09:36:22;24.58;;;12.75;;
64907;SDS011;69061;52.236;5.188;2023-12-04T09:38:49;28.88;;;12.23;;
64907;SDS011;69061;52.236;5.188;2023-12-04T09:41:16;21.70;;;11.73;;
64907;SDS011;69061;52.236;5.188;2023-12-04T09:43:44;25.30;;;11.95;;
64907;SDS011;69061;52.236;5.188;2023-12-04T09:46:12;25.48;;;12.57;;
64907;SDS011;69061;52.236;5.188;2023-12-04T09:48:40;21.02;;;11.25;;
64907;SDS011;69061;52.236;5.188;2023-12-04T09:51:10;19.73;;;10.65;;
64907;SDS011;69061;52.236;5.188;2023-12-04T09:53:37;24.15;;;12.07;;
64907;SDS011;69061;52.236;5.188;2023-12-04T09:56:07;22.30;;;11.63;;
64907;SDS011;69061;52.236;5.188;2023-12-04T09:58:35;21.98;;;11.95;;
64907;SDS011;69061;52.236;5.188;2023-12-04T10:01:05;21.90;;;11.05;;
64907;SDS011;69061;52.236;5.188;2023-12-04T10:03:33;21.17;;;11.25;;
64907;SDS011;69061;52.236;5.188;2023-12-04T10:06:01;20.95;;;11.13;;
64907;SDS011;69061;52.236;5.188;2023-12-04T10:08:30;19.55;;;11.15;;
64907;SDS011;69061;52.236;5.188;2023-12-04T10:10:57;21.00;;;10.38;;
64907;SDS011;69061;52.236;5.188;2023-12-04T10:13:27;19.95;;;11.48;;
64907;SDS011;69061;52.236;5.188;2023-12-04T10:15:56;23.02;;;11.20;;
64907;SDS011;69061;52.236;5.188;2023-12-04T10:18:26;16.83;;;10.27;;
64907;SDS011;69061;52.236;5.188;2023-12-04T10:20:55;21.40;;;10.88;;
64907;SDS011;69061;52.236;5.188;2023-12-04T10:23:36;20.45;;;10.95;;
64907;SDS011;69061;52.236;5.188;2023-12-04T10:26:03;19.17;;;10.48;;
64907;SDS011;69061;52.236;5.188;2023-12-04T10:28:30;22.15;;;11.90;;
64907;SDS011;69061;52.236;5.188;2023-12-04T10:30:57;22.48;;;11.88;;
64907;SDS011;69061;52.236;5.188;2023-12-04T10:33:24;23.63;;;12.18;;
64907;SDS011;69061;52.236;5.188;2023-12-04T10:35:52;23.13;;;11.68;;
64907;SDS011;69061;52.236;5.188;2023-12-04T10:38:20;23.73;;;10.52;;
64907;SDS011;69061;52.236;5.188;2023-12-04T10:40:49;22.17;;;11.30;;
64907;SDS011;69061;52.236;5.188;2023-12-04T10:43:17;21.35;;;11.80;;
64907;SDS011;69061;52.236;5.188;2023-12-04T10:45:46;24.13;;;12.48;;
64907;SDS011;69061;52.236;5.188;2023-12-04T10:48:14;20.80;;;11.95;;
64907;SDS011;69061;52.236;5.188;2023-12-04T10:50:43;20.77;;;11.40;;
64907;SDS011;69061;52.236;5.188;2023-12-04T10:53:11;18.10;;;9.40;;
64907;SDS011;69061;52.236;5.188;2023-12-04T10:55:38;21.10;;;11.32;;
64907;SDS011;69061;52.236;5.188;2023-12-04T10:58:08;25.10;;;12.20;;
64907;SDS011;69061;52.236;5.188;2023-12-04T11:00:38;23.67;;;12.35;;
64907;SDS011;69061;52.236;5.188;2023-12-04T11:03:07;23.98;;;11.75;;
64907;SDS011;69061;52.236;5.188;2023-12-04T11:05:37;28.40;;;12.90;;
64907;SDS011;69061;52.236;5.188;2023-12-04T11:08:05;22.67;;;11.15;;
64907;SDS011;69061;52.236;5.188;2023-12-04T11:10:36;23.90;;;12.02;;
64907;SDS011;69061;52.236;5.188;2023-12-04T11:13:15;21.63;;;11.63;;
64907;SDS011;69061;52.236;5.188;2023-12-04T11:15:44;23.85;;;12.40;;
64907;SDS011;69061;52.236;5.188;2023-12-04T11:18:15;24.23;;;12.07;;
64907;SDS011;69061;52.236;5.188;2023-12-04T11:20:44;21.67;;;12.27;;
64907;SDS011;69061;52.236;5.188;2023-12-04T11:23:15;26.00;;;12.68;;
64907;SDS011;69061;52.236;5.188;2023-12-04T11:25:42;26.23;;;13.00;;
64907;SDS011;69061;52.236;5.188;2023-12-04T11:28:13;28.35;;;14.10;;
64907;SDS011;69061;52.236;5.188;2023-12-04T11:30:42;26.13;;;12.25;;
64907;SDS011;69061;52.236;5.188;2023-12-04T11:33:10;21.17;;;11.30;;
64907;SDS011;69061;52.236;5.188;2023-12-04T11:35:37;22.80;;;11.45;;
64907;SDS011;69061;52.236;5.188;2023-12-04T11:38:05;24.00;;;12.75;;
64907;SDS011;69061;52.236;5.188;2023-12-04T11:40:32;23.67;;;13.23;;
64907;SDS011;69061;52.236;5.188;2023-12-04T11:42:59;22.88;;;11.48;;
64907;SDS011;69061;52.236;5.188;2023-12-04T11:45:27;26.20;;;13.45;;
64907;SDS011;69061;52.236;5.188;2023-12-04T11:50:26;27.30;;;13.45;;
64907;SDS011;69061;52.236;5.188;2023-12-04T11:52:53;27.98;;;13.00;;
64907;SDS011;69061;52.236;5.188;2023-12-04T11:55:21;26.95;;;12.68;;
64907;SDS011;69061;52.236;5.188;2023-12-04T11:57:50;25.70;;;14.43;;
64907;SDS011;69061;52.236;5.188;2023-12-04T12:00:21;23.77;;;12.38;;
64907;SDS011;69061;52.236;5.188;2023-12-04T12:03:02;27.92;;;13.75;;
64907;SDS011;69061;52.236;5.188;2023-12-04T12:05:31;28.15;;;14.32;;
64907;SDS011;69061;52.236;5.188;2023-12-04T12:08:00;23.58;;;13.45;;
64907;SDS011;69061;52.236;5.188;2023-12-04T12:10:28;25.25;;;14.00;;
64907;SDS011;69061;52.236;5.188;2023-12-04T12:12:54;24.33;;;14.80;;
64907;SDS011;69061;52.236;5.188;2023-12-04T12:15:21;26.33;;;15.02;;
64907;SDS011;69061;52.236;5.188;2023-12-04T12:17:49;30.05;;;14.02;;
64907;SDS011;69061;52.236;5.188;2023-12-04T12:20:19;23.75;;;13.55;;
64907;SDS011;69061;52.236;5.188;2023-12-04T12:22:47;24.88;;;12.60;;
64907;SDS011;69061;52.236;5.188;2023-12-04T12:25:14;25.38;;;13.98;;
64907;SDS011;69061;52.236;5.188;2023-12-04T12:27:41;33.33;;;16.13;;
64907;SDS011;69061;52.236;5.188;2023-12-04T12:30:08;27.95;;;14.60;;
64907;SDS011;69061;52.236;5.188;2023-12-04T12:32:36;28.55;;;16.52;;
64907;SDS011;69061;52.236;5.188;2023-12-04T12:35:03;29.08;;;14.75;;
64907;SDS011;69061;52.236;5.188;2023-12-04T12:37:31;26.17;;;14.02;;
64907;SDS011;69061;52.236;5.188;2023-12-04T12:39:57;30.50;;;16.17;;
64907;SDS011;69061;52.236;5.188;2023-12-04T12:42:25;24.63;;;14.80;;
64907;SDS011;69061;52.236;5.188;2023-12-04T12:44:52;35.10;;;15.75;;
64907;SDS011;69061;52.236;5.188;2023-12-04T12:47:20;30.25;;;14.60;;
64907;SDS011;69061;52.236;5.188;2023-12-04T12:49:47;30.45;;;15.43;;
64907;SDS011;69061;52.236;5.188;2023-12-04T12:52:14;29.63;;;17.40;;
64907;SDS011;69061;52.236;5.188;2023-12-04T12:54:42;29.30;;;15.68;;
64907;SDS011;69061;52.236;5.188;2023-12-04T12:57:10;31.75;;;16.17;;
64907;SDS011;69061;52.236;5.188;2023-12-04T12:59:37;25.52;;;14.32;;
64907;SDS011;69061;52.236;5.188;2023-12-04T13:02:04;29.30;;;15.85;;
64907;SDS011;69061;52.236;5.188;2023-12-04T13:04:36;30.42;;;16.25;;
64907;SDS011;69061;52.236;5.188;2023-12-04T13:07:04;30.38;;;15.88;;
64907;SDS011;69061;52.236;5.188;2023-12-04T13:09:31;30.27;;;16.25;;
64907;SDS011;69061;52.236;5.188;2023-12-04T13:12:02;29.63;;;16.17;;
64907;SDS011;69061;52.236;5.188;2023-12-04T13:14:29;33.92;;;15.65;;
64907;SDS011;69061;52.236;5.188;2023-12-04T13:16:55;42.72;;;18.30;;
64907;SDS011;69061;52.236;5.188;2023-12-04T13:19:22;31.10;;;15.73;;
64907;SDS011;69061;52.236;5.188;2023-12-04T13:21:52;28.52;;;14.85;;
64907;SDS011;69061;52.236;5.188;2023-12-04T13:24:18;26.38;;;15.15;;
64907;SDS011;69061;52.236;5.188;2023-12-04T13:26:46;31.15;;;15.80;;
64907;SDS011;69061;52.236;5.188;2023-12-04T13:29:14;32.50;;;16.65;;
64907;SDS011;69061;52.236;5.188;2023-12-04T13:31:44;27.42;;;14.68;;
64907;SDS011;69061;52.236;5.188;2023-12-04T13:34:11;26.95;;;15.20;;
64907;SDS011;69061;52.236;5.188;2023-12-04T13:36:38;31.58;;;15.88;;
64907;SDS011;69061;52.236;5.188;2023-12-04T13:39:07;29.40;;;15.52;;
64907;SDS011;69061;52.236;5.188;2023-12-04T13:41:43;32.58;;;16.27;;
64907;SDS011;69061;52.236;5.188;2023-12-04T13:44:29;30.88;;;16.63;;
64907;SDS011;69061;52.236;5.188;2023-12-04T13:46:56;28.45;;;15.27;;
64907;SDS011;69061;52.236;5.188;2023-12-04T13:49:24;29.08;;;14.77;;
64907;SDS011;69061;52.236;5.188;2023-12-04T13:51:51;29.13;;;14.13;;
64907;SDS011;69061;52.236;5.188;2023-12-04T13:54:18;28.05;;;15.32;;
64907;SDS011;69061;52.236;5.188;2023-12-04T13:56:50;32.55;;;16.67;;
64907;SDS011;69061;52.236;5.188;2023-12-04T13:59:21;27.98;;;14.18;;
64907;SDS011;69061;52.236;5.188;2023-12-04T14:01:51;26.73;;;14.75;;
64907;SDS011;69061;52.236;5.188;2023-12-04T14:04:19;27.92;;;15.45;;
64907;SDS011;69061;52.236;5.188;2023-12-04T14:06:48;26.55;;;15.10;;
64907;SDS011;69061;52.236;5.188;2023-12-04T14:09:15;31.25;;;15.85;;
64907;SDS011;69061;52.236;5.188;2023-12-04T14:11:42;26.20;;;14.43;;
64907;SDS011;69061;52.236;5.188;2023-12-04T14:14:10;29.83;;;14.60;;
64907;SDS011;69061;52.236;5.188;2023-12-04T14:16:38;27.77;;;15.50;;
64907;SDS011;69061;52.236;5.188;2023-12-04T14:19:06;28.02;;;15.40;;
64907;SDS011;69061;52.236;5.188;2023-12-04T14:21:32;25.73;;;14.13;;
64907;SDS011;69061;52.236;5.188;2023-12-04T14:23:59;31.73;;;16.08;;
64907;SDS011;69061;52.236;5.188;2023-12-04T14:26:26;26.98;;;14.90;;